createdAt,value
2017-07-06T00:00:44.520Z,22.0
2017-07-06T00:01:46.544Z,21.9
2017-07-06T00:02:48.532Z,21.9
2017-07-06T00:03:51.018Z,21.9
2017-07-06T00:04:52.551Z,21.9
2017-07-06T00:05:54.549Z,21.9
2017-07-06T00:06:56.553Z,21.9
2017-07-06T00:07:58.567Z,21.9
2017-07-06T00:09:00.566Z,21.9
2017-07-06T00:10:02.591Z,21.9
2017-07-06T00:11:04.576Z,22.0
2017-07-06T00:12:06.581Z,22.0
2017-07-06T00:13:08.586Z,21.9
2017-07-06T00:14:10.595Z,21.9
2017-07-06T00:15:12.596Z,21.9
2017-07-06T00:16:14.602Z,21.9
2017-07-06T00:17:16.605Z,21.9
2017-07-06T00:18:18.611Z,21.9
2017-07-06T00:19:20.617Z,21.9
2017-07-06T00:20:22.629Z,22.0
2017-07-06T00:21:24.627Z,21.9
2017-07-06T00:22:26.633Z,21.9
2017-07-06T00:23:28.638Z,21.9
2017-07-06T00:24:30.041Z,22.0
2017-07-06T00:25:31.443Z,21.9
2017-07-06T00:26:32.849Z,21.9
2017-07-06T00:27:34.253Z,21.9
2017-07-06T00:28:35.658Z,21.9
2017-07-06T00:29:37.062Z,22.0
2017-07-06T00:30:38.465Z,21.9
2017-07-06T00:31:39.867Z,21.9
2017-07-06T00:32:41.271Z,21.9
2017-07-06T00:33:42.677Z,22.0
2017-07-06T00:34:44.079Z,21.9
2017-07-06T00:35:45.486Z,21.9
2017-07-06T00:36:46.889Z,21.9
2017-07-06T00:37:48.292Z,21.8
2017-07-06T00:38:49.694Z,21.9
2017-07-06T00:39:51.101Z,22.0
2017-07-06T00:40:52.500Z,21.9
2017-07-06T00:41:54.912Z,22.0
2017-07-06T00:42:56.316Z,21.9
2017-07-06T00:43:57.719Z,21.9
2017-07-06T00:44:59.121Z,22.0
2017-07-06T00:46:00.524Z,21.9
2017-07-06T00:47:01.925Z,21.9
2017-07-06T00:48:04.015Z,22.0
2017-07-06T00:49:05.419Z,21.9
2017-07-06T00:50:06.823Z,21.9
2017-07-06T00:51:08.224Z,21.8
2017-07-06T00:52:09.626Z,21.8
2017-07-06T00:53:11.028Z,21.9
2017-07-06T00:54:12.432Z,21.8
2017-07-06T00:55:13.836Z,21.9
2017-07-06T00:56:15.241Z,21.8
2017-07-06T00:57:16.644Z,21.9
2017-07-06T00:58:18.046Z,21.9
2017-07-06T00:59:19.450Z,21.9
2017-07-06T01:00:20.855Z,21.9
2017-07-06T01:01:22.261Z,21.9
2017-07-06T01:02:23.667Z,21.8
2017-07-06T01:03:25.072Z,21.9
2017-07-06T01:04:26.477Z,21.8
2017-07-06T01:05:27.877Z,21.9
2017-07-06T01:06:30.007Z,21.9
2017-07-06T01:07:31.411Z,21.9
2017-07-06T01:08:32.816Z,21.8
2017-07-06T01:09:34.219Z,21.8
2017-07-06T01:10:35.623Z,21.9
2017-07-06T01:11:37.033Z,21.9
2017-07-06T01:12:38.428Z,21.8
2017-07-06T01:13:39.832Z,21.9
2017-07-06T01:14:41.234Z,21.9
2017-07-06T01:15:42.638Z,21.9
2017-07-06T01:16:45.010Z,21.9
2017-07-06T01:17:46.416Z,21.8
2017-07-06T01:18:47.821Z,21.9
2017-07-06T01:19:49.223Z,21.8
2017-07-06T01:20:50.626Z,21.9
2017-07-06T01:21:52.026Z,21.9
2017-07-06T01:22:53.459Z,21.8
2017-07-06T01:23:54.887Z,21.9
2017-07-06T01:24:56.332Z,21.9
2017-07-06T01:25:57.735Z,21.9
2017-07-06T01:26:59.136Z,21.8
2017-07-06T01:28:00.537Z,21.9
2017-07-06T01:29:01.940Z,21.8
2017-07-06T01:30:03.357Z,21.8
2017-07-06T01:31:04.756Z,21.8
2017-07-06T01:32:06.165Z,21.9
2017-07-06T01:33:07.577Z,21.9
2017-07-06T01:34:08.988Z,21.8
2017-07-06T01:35:10.391Z,21.9
2017-07-06T01:36:11.793Z,21.8
2017-07-06T01:37:13.198Z,21.8
2017-07-06T01:38:14.601Z,21.9
2017-07-06T01:39:16.008Z,21.8
2017-07-06T01:40:17.425Z,21.8
2017-07-06T01:41:18.828Z,21.8
2017-07-06T01:42:20.230Z,21.8
2017-07-06T01:43:21.632Z,21.9
2017-07-06T01:44:23.034Z,21.9
2017-07-06T01:45:24.445Z,21.8
2017-07-06T01:46:25.871Z,21.9
2017-07-06T01:47:27.277Z,21.9
2017-07-06T01:48:28.675Z,21.8
2017-07-06T01:49:30.078Z,21.9
2017-07-06T01:50:31.483Z,21.8
2017-07-06T01:51:32.887Z,21.9
2017-07-06T01:52:34.295Z,21.9
2017-07-06T01:53:35.700Z,21.9
2017-07-06T01:54:37.104Z,21.9
2017-07-06T01:55:38.506Z,21.8
2017-07-06T01:56:39.910Z,21.8
2017-07-06T01:57:41.319Z,21.9
2017-07-06T01:58:42.727Z,21.8
2017-07-06T01:59:45.037Z,21.8
2017-07-06T02:00:46.437Z,21.8
2017-07-06T02:01:47.840Z,21.8
2017-07-06T02:02:49.248Z,21.8
2017-07-06T02:03:50.658Z,21.9
2017-07-06T02:04:52.060Z,21.8
2017-07-06T02:05:53.462Z,21.8
2017-07-06T02:06:55.172Z,21.8
2017-07-06T02:07:57.171Z,21.8
2017-07-06T02:08:59.185Z,21.9
2017-07-06T02:10:01.185Z,21.8
2017-07-06T02:11:03.188Z,21.8
2017-07-06T02:12:05.194Z,21.8
2017-07-06T02:13:07.199Z,21.8
2017-07-06T02:14:09.206Z,21.8
2017-07-06T02:15:11.211Z,21.9
2017-07-06T02:16:13.219Z,21.9
2017-07-06T02:17:15.223Z,21.8
2017-07-06T02:18:17.231Z,21.9
2017-07-06T02:19:19.233Z,21.8
2017-07-06T02:20:21.238Z,21.9
2017-07-06T02:21:23.243Z,21.8
2017-07-06T02:22:25.249Z,21.8
2017-07-06T02:23:27.254Z,21.8
2017-07-06T02:24:29.266Z,21.8
2017-07-06T02:25:31.266Z,21.8
2017-07-06T02:26:33.269Z,21.8
2017-07-06T02:27:35.276Z,21.8
2017-07-06T02:28:37.282Z,21.8
2017-07-06T02:29:39.288Z,21.8
2017-07-06T02:30:41.291Z,21.8
2017-07-06T02:31:43.297Z,21.8
2017-07-06T02:32:45.306Z,21.8
2017-07-06T02:33:47.315Z,21.8
2017-07-06T02:34:49.313Z,21.8
2017-07-06T02:35:51.319Z,21.8
2017-07-06T02:36:53.325Z,21.8
2017-07-06T02:37:55.327Z,21.8
2017-07-06T02:38:57.378Z,21.7
2017-07-06T02:39:59.345Z,21.8
2017-07-06T02:41:01.346Z,21.9
2017-07-06T02:42:03.351Z,21.8
2017-07-06T02:43:05.355Z,21.9
2017-07-06T02:44:07.360Z,21.8
2017-07-06T02:45:09.366Z,21.9
2017-07-06T02:46:11.371Z,21.8
2017-07-06T02:47:13.377Z,21.8
2017-07-06T02:48:15.385Z,21.8
2017-07-06T02:49:17.393Z,21.9
2017-07-06T02:50:19.396Z,21.8
2017-07-06T02:51:21.401Z,21.8
2017-07-06T02:52:23.408Z,21.8
2017-07-06T02:53:25.414Z,21.8
2017-07-06T02:54:27.418Z,21.9
2017-07-06T02:55:29.431Z,21.9
2017-07-06T02:56:31.428Z,21.8
2017-07-06T02:57:33.433Z,21.8
2017-07-06T02:58:35.438Z,21.9
2017-07-06T02:59:37.444Z,21.8
2017-07-06T03:00:39.449Z,21.8
2017-07-06T03:01:41.456Z,21.8
2017-07-06T03:02:42.859Z,21.8
2017-07-06T03:03:44.260Z,21.8
2017-07-06T03:04:45.664Z,21.8
2017-07-06T03:05:47.071Z,21.8
2017-07-06T03:06:48.476Z,21.8
2017-07-06T03:07:49.877Z,21.8
2017-07-06T03:08:51.278Z,21.8
2017-07-06T03:09:52.681Z,21.8
2017-07-06T03:10:54.085Z,21.8
2017-07-06T03:11:55.489Z,21.8
2017-07-06T03:12:56.901Z,21.8
2017-07-06T03:13:58.305Z,21.8
2017-07-06T03:14:59.709Z,21.8
2017-07-06T03:16:01.118Z,21.8
2017-07-06T03:17:02.518Z,21.8
2017-07-06T03:18:03.923Z,21.8
2017-07-06T03:19:05.326Z,21.8
2017-07-06T03:20:06.730Z,21.8
2017-07-06T03:21:08.134Z,21.8
2017-07-06T03:22:09.535Z,21.8
2017-07-06T03:23:10.937Z,21.8
2017-07-06T03:24:12.341Z,21.8
2017-07-06T03:25:13.745Z,21.8
2017-07-06T03:26:15.149Z,21.8
2017-07-06T03:27:16.555Z,21.8
2017-07-06T03:28:17.960Z,21.8
2017-07-06T03:29:19.359Z,21.8
2017-07-06T03:30:20.761Z,21.8
2017-07-06T03:31:22.164Z,21.8
2017-07-06T03:32:23.566Z,21.8
2017-07-06T03:33:25.541Z,21.9
2017-07-06T03:34:26.950Z,21.8
2017-07-06T03:35:28.350Z,21.8
2017-07-06T03:36:29.752Z,21.8
2017-07-06T03:37:31.157Z,21.7
2017-07-06T03:38:32.559Z,21.8
2017-07-06T03:39:33.962Z,21.8
2017-07-06T03:40:35.365Z,21.8
2017-07-06T03:41:36.771Z,21.8
2017-07-06T03:42:38.177Z,21.8
2017-07-06T03:43:39.578Z,21.8
2017-07-06T03:44:40.980Z,21.7
2017-07-06T03:45:42.384Z,21.7
2017-07-06T03:46:43.786Z,21.8
2017-07-06T03:47:45.195Z,21.7
2017-07-06T03:48:46.597Z,21.8
2017-07-06T03:49:48.002Z,21.8
2017-07-06T03:50:49.449Z,21.8
2017-07-06T03:51:50.804Z,21.7
2017-07-06T03:52:52.205Z,21.8
2017-07-06T03:53:53.611Z,21.7
2017-07-06T03:54:55.021Z,21.7
2017-07-06T03:55:56.414Z,21.8
2017-07-06T03:56:57.820Z,21.8
2017-07-06T03:57:59.223Z,21.6
2017-07-06T03:59:00.677Z,21.7
2017-07-06T04:00:03.048Z,21.7
2017-07-06T04:01:04.450Z,21.8
2017-07-06T04:02:05.855Z,21.8
2017-07-06T04:03:07.265Z,21.7
2017-07-06T04:04:08.669Z,21.8
2017-07-06T04:05:10.111Z,21.7
2017-07-06T04:06:11.481Z,21.8
2017-07-06T04:07:12.882Z,21.7
2017-07-06T04:08:14.287Z,21.8
2017-07-06T04:09:15.701Z,21.7
2017-07-06T04:10:17.113Z,21.6
2017-07-06T04:11:18.518Z,21.8
2017-07-06T04:12:19.917Z,21.7
2017-07-06T04:13:21.330Z,21.8
2017-07-06T04:14:22.734Z,21.7
2017-07-06T04:15:24.136Z,21.7
2017-07-06T04:16:25.539Z,21.7
2017-07-06T04:17:26.946Z,21.7
2017-07-06T04:18:28.352Z,21.8
2017-07-06T04:19:29.753Z,21.8
2017-07-06T04:20:31.155Z,21.7
2017-07-06T04:21:32.558Z,21.8
2017-07-06T04:22:33.963Z,21.7
2017-07-06T04:23:35.366Z,21.7
2017-07-06T04:24:36.772Z,21.6
2017-07-06T04:25:38.176Z,21.7
2017-07-06T04:26:39.639Z,21.8
2017-07-06T04:27:40.980Z,21.8
2017-07-06T04:28:42.386Z,21.8
2017-07-06T04:29:43.788Z,21.8
2017-07-06T04:30:45.200Z,21.8
2017-07-06T04:31:46.606Z,21.8
2017-07-06T04:32:48.009Z,21.6
2017-07-06T04:33:49.412Z,21.8
2017-07-06T04:34:50.821Z,21.7
2017-07-06T04:35:52.232Z,21.6
2017-07-06T04:36:54.561Z,21.8
2017-07-06T04:37:55.965Z,21.8
2017-07-06T04:38:57.369Z,21.7
2017-07-06T04:39:58.775Z,21.8
2017-07-06T04:41:00.175Z,21.7
2017-07-06T04:42:01.960Z,21.7
2017-07-06T04:43:03.972Z,21.7
2017-07-06T04:44:05.978Z,21.7
2017-07-06T04:45:07.978Z,21.7
2017-07-06T04:46:10.106Z,21.7
2017-07-06T04:47:12.054Z,21.7
2017-07-06T04:48:14.077Z,21.7
2017-07-06T04:49:16.090Z,21.6
2017-07-06T04:50:18.116Z,21.7
2017-07-06T04:51:20.140Z,21.6
2017-07-06T04:52:22.145Z,21.7
2017-07-06T04:53:24.160Z,21.7
2017-07-06T04:54:26.176Z,21.7
2017-07-06T04:55:28.188Z,21.7
2017-07-06T04:56:30.232Z,21.7
2017-07-06T04:57:32.203Z,21.7
2017-07-06T04:58:34.209Z,21.7
2017-07-06T04:59:36.223Z,21.7
2017-07-06T05:00:38.231Z,21.7
2017-07-06T05:01:40.237Z,21.7
2017-07-06T05:02:42.275Z,21.6
2017-07-06T05:03:44.258Z,21.7
2017-07-06T05:04:45.662Z,21.7
2017-07-06T05:05:47.064Z,21.7
2017-07-06T05:06:48.470Z,21.6
2017-07-06T05:07:49.873Z,21.7
2017-07-06T05:08:51.277Z,21.7
2017-07-06T05:09:52.679Z,21.7
2017-07-06T05:10:54.086Z,21.7
2017-07-06T05:11:55.485Z,21.7
2017-07-06T05:12:56.886Z,21.7
2017-07-06T05:13:58.290Z,21.7
2017-07-06T05:14:59.694Z,21.7
2017-07-06T05:16:01.099Z,21.7
2017-07-06T05:17:02.529Z,21.7
2017-07-06T05:18:03.932Z,21.7
2017-07-06T05:19:05.354Z,21.7
2017-07-06T05:20:06.765Z,21.7
2017-07-06T05:21:08.196Z,21.6
2017-07-06T05:22:09.615Z,21.8
2017-07-06T05:23:11.014Z,21.7
2017-07-06T05:24:12.422Z,21.7
2017-07-06T05:25:13.823Z,21.7
2017-07-06T05:26:15.223Z,21.7
2017-07-06T05:27:16.638Z,21.7
2017-07-06T05:28:18.042Z,21.7
2017-07-06T05:29:19.444Z,21.7
2017-07-06T05:30:20.851Z,21.7
2017-07-06T05:31:22.251Z,21.7
2017-07-06T05:32:23.655Z,21.6
2017-07-06T05:33:25.057Z,21.7
2017-07-06T05:34:26.460Z,21.7
2017-07-06T05:35:27.863Z,21.8
2017-07-06T05:36:29.526Z,21.7
2017-07-06T05:37:30.929Z,21.7
2017-07-06T05:38:32.336Z,21.7
2017-07-06T05:39:33.734Z,21.7
2017-07-06T05:40:35.135Z,21.8
2017-07-06T05:41:36.538Z,21.8
2017-07-06T05:42:37.942Z,21.7
2017-07-06T05:43:39.346Z,21.8
2017-07-06T05:44:40.755Z,21.7
2017-07-06T05:45:43.072Z,21.6
2017-07-06T05:46:44.475Z,21.6
2017-07-06T05:47:45.877Z,21.8
2017-07-06T05:48:47.281Z,21.7
2017-07-06T05:49:48.683Z,21.7
2017-07-06T05:50:50.090Z,21.7
2017-07-06T05:51:51.492Z,21.7
2017-07-06T05:52:52.897Z,21.7
2017-07-06T05:53:54.298Z,21.7
2017-07-06T05:54:55.699Z,21.8
2017-07-06T05:55:57.102Z,21.7
2017-07-06T05:56:58.505Z,21.7
2017-07-06T05:57:59.912Z,21.7
2017-07-06T05:59:01.316Z,21.8
2017-07-06T06:00:02.717Z,21.7
2017-07-06T06:01:04.117Z,21.7
2017-07-06T06:02:05.523Z,21.7
2017-07-06T06:03:06.928Z,21.7
2017-07-06T06:04:08.331Z,21.8
2017-07-06T06:05:09.735Z,21.7
2017-07-06T06:06:11.141Z,21.6
2017-07-06T06:07:12.542Z,21.7
2017-07-06T06:08:13.949Z,21.8
2017-07-06T06:09:15.351Z,21.7
2017-07-06T06:10:16.754Z,21.7
2017-07-06T06:11:18.157Z,21.7
2017-07-06T06:12:19.561Z,21.7
2017-07-06T06:13:21.578Z,21.7
2017-07-06T06:14:22.981Z,21.7
2017-07-06T06:15:24.383Z,21.7
2017-07-06T06:16:25.784Z,21.7
2017-07-06T06:17:27.189Z,21.7
2017-07-06T06:18:28.594Z,21.7
2017-07-06T06:19:29.998Z,21.7
2017-07-06T06:20:31.402Z,21.7
2017-07-06T06:21:32.805Z,21.7
2017-07-06T06:22:34.207Z,21.7
2017-07-06T06:23:35.608Z,21.7
2017-07-06T06:24:37.014Z,21.7
2017-07-06T06:25:38.418Z,21.7
2017-07-06T06:26:39.821Z,21.7
2017-07-06T06:27:41.225Z,21.7
2017-07-06T06:28:42.628Z,21.7
2017-07-06T06:29:44.033Z,21.7
2017-07-06T06:30:45.438Z,21.7
2017-07-06T06:31:46.842Z,21.7
2017-07-06T06:32:48.245Z,21.7
2017-07-06T06:33:49.648Z,21.7
2017-07-06T06:34:51.052Z,21.7
2017-07-06T06:35:52.456Z,21.8
2017-07-06T06:36:53.859Z,21.8
2017-07-06T06:37:55.262Z,21.8
2017-07-06T06:38:56.668Z,21.6
2017-07-06T06:39:58.074Z,21.6
2017-07-06T06:40:59.561Z,21.8
2017-07-06T06:42:01.566Z,21.7
2017-07-06T06:43:03.570Z,21.7
2017-07-06T06:44:05.576Z,21.7
2017-07-06T06:45:07.581Z,21.7
2017-07-06T06:46:09.585Z,21.7
2017-07-06T06:47:11.602Z,21.7
2017-07-06T06:48:13.603Z,21.7
2017-07-06T06:49:15.604Z,21.7
2017-07-06T06:50:17.609Z,21.8
2017-07-06T06:51:19.614Z,21.7
2017-07-06T06:52:21.621Z,21.7
2017-07-06T06:53:23.629Z,21.7
2017-07-06T06:54:25.628Z,21.7
2017-07-06T06:55:27.635Z,21.7
2017-07-06T06:56:29.639Z,21.7
2017-07-06T06:57:31.647Z,21.8
2017-07-06T06:58:33.650Z,21.7
2017-07-06T06:59:35.655Z,21.8
2017-07-06T07:00:37.661Z,21.8
2017-07-06T07:01:39.666Z,21.8
2017-07-06T07:02:41.670Z,21.8
2017-07-06T07:03:43.691Z,21.8
2017-07-06T07:04:45.682Z,21.7
2017-07-06T07:05:47.687Z,21.8
2017-07-06T07:06:49.091Z,21.7
2017-07-06T07:07:50.495Z,21.8
2017-07-06T07:08:51.902Z,21.8
2017-07-06T07:09:53.307Z,21.8
2017-07-06T07:10:54.712Z,21.7
2017-07-06T07:11:56.171Z,21.8
2017-07-06T07:12:57.522Z,21.7
2017-07-06T07:13:58.933Z,21.8
2017-07-06T07:15:00.340Z,21.8
2017-07-06T07:16:01.749Z,21.8
2017-07-06T07:17:03.149Z,21.8
2017-07-06T07:18:04.561Z,21.8
2017-07-06T07:19:05.962Z,21.8
2017-07-06T07:20:07.365Z,21.7
2017-07-06T07:21:08.765Z,21.8
2017-07-06T07:22:10.173Z,21.9
2017-07-06T07:23:11.576Z,21.8
2017-07-06T07:24:12.988Z,21.8
2017-07-06T07:25:14.436Z,21.8
2017-07-06T07:26:15.840Z,21.8
2017-07-06T07:27:17.244Z,21.7
2017-07-06T07:28:18.651Z,21.8
2017-07-06T07:29:20.054Z,21.8
2017-07-06T07:30:21.459Z,21.8
2017-07-06T07:31:23.596Z,21.8
2017-07-06T07:32:25.005Z,21.8
2017-07-06T07:33:26.416Z,21.7
2017-07-06T07:34:27.821Z,21.8
2017-07-06T07:35:29.227Z,21.7
2017-07-06T07:36:30.633Z,21.8
2017-07-06T07:37:32.041Z,21.8
2017-07-06T07:38:33.449Z,21.8
2017-07-06T07:39:34.854Z,21.8
2017-07-06T07:40:36.259Z,21.8
2017-07-06T07:41:37.662Z,21.8
2017-07-06T07:42:39.064Z,21.8
2017-07-06T07:43:40.469Z,21.8
2017-07-06T07:44:41.873Z,21.8
2017-07-06T07:45:43.278Z,21.8
2017-07-06T07:46:44.682Z,21.8
2017-07-06T07:47:46.086Z,21.8
2017-07-06T07:48:47.488Z,21.8
2017-07-06T07:49:48.892Z,21.8
2017-07-06T07:50:50.296Z,21.8
2017-07-06T07:51:51.700Z,21.8
2017-07-06T07:52:53.105Z,21.8
2017-07-06T07:53:54.509Z,21.8
2017-07-06T07:54:55.912Z,21.8
2017-07-06T07:55:57.316Z,21.8
2017-07-06T07:56:58.723Z,21.8
2017-07-06T07:58:00.121Z,21.8
2017-07-06T07:59:01.526Z,21.9
2017-07-06T08:00:02.930Z,21.8
2017-07-06T08:01:04.335Z,21.8
2017-07-06T08:02:05.738Z,21.8
2017-07-06T08:03:07.138Z,21.8
2017-07-06T08:04:08.545Z,21.9
2017-07-06T08:05:09.954Z,21.8
2017-07-06T08:06:11.360Z,21.8
2017-07-06T08:07:12.759Z,21.8
2017-07-06T08:08:14.163Z,21.9
2017-07-06T08:09:15.568Z,21.8
2017-07-06T08:10:16.970Z,21.8
2017-07-06T08:11:18.374Z,21.8
2017-07-06T08:12:19.781Z,21.8
2017-07-06T08:13:21.183Z,21.8
2017-07-06T08:14:22.587Z,21.9
2017-07-06T08:15:23.991Z,21.9
2017-07-06T08:16:25.396Z,21.9
2017-07-06T08:17:26.798Z,21.8
2017-07-06T08:18:28.203Z,21.8
2017-07-06T08:19:29.607Z,21.8
2017-07-06T08:20:31.013Z,21.9
2017-07-06T08:21:32.418Z,21.8
2017-07-06T08:22:33.820Z,21.9
2017-07-06T08:23:35.224Z,21.8
2017-07-06T08:24:36.626Z,21.8
2017-07-06T08:25:38.029Z,21.8
2017-07-06T08:26:39.433Z,21.9
2017-07-06T08:27:40.838Z,21.8
2017-07-06T08:28:42.243Z,21.9
2017-07-06T08:29:43.650Z,21.8
2017-07-06T08:30:45.052Z,21.8
2017-07-06T08:31:46.456Z,21.8
2017-07-06T08:32:47.861Z,21.8
2017-07-06T08:33:49.263Z,21.9
2017-07-06T08:34:50.669Z,21.8
2017-07-06T08:35:52.072Z,21.8
2017-07-06T08:36:53.480Z,21.8
2017-07-06T08:37:54.884Z,21.8
2017-07-06T08:38:56.288Z,21.9
2017-07-06T08:39:57.691Z,21.8
2017-07-06T08:40:59.148Z,21.9
2017-07-06T08:42:00.501Z,21.9
2017-07-06T08:43:02.190Z,21.8
2017-07-06T08:44:04.195Z,21.9
2017-07-06T08:45:06.205Z,21.9
2017-07-06T08:46:08.208Z,21.9
2017-07-06T08:47:10.212Z,21.9
2017-07-06T08:48:12.221Z,21.9
2017-07-06T08:49:14.225Z,21.9
2017-07-06T08:50:16.233Z,21.9
2017-07-06T08:51:18.241Z,21.9
2017-07-06T08:52:20.250Z,21.9
2017-07-06T08:53:22.245Z,21.9
2017-07-06T08:54:24.252Z,22.0
2017-07-06T08:55:26.255Z,22.0
2017-07-06T08:56:28.263Z,21.9
2017-07-06T08:57:30.267Z,21.9
2017-07-06T08:58:32.271Z,21.8
2017-07-06T08:59:34.279Z,21.9
2017-07-06T09:00:36.281Z,21.9
2017-07-06T09:01:38.288Z,21.9
2017-07-06T09:02:40.292Z,21.9
2017-07-06T09:03:42.299Z,21.9
2017-07-06T09:04:44.305Z,22.0
2017-07-06T09:05:46.309Z,21.9
2017-07-06T09:06:48.316Z,21.9
2017-07-06T09:07:50.325Z,21.9
2017-07-06T09:08:51.731Z,21.9
2017-07-06T09:09:53.138Z,21.9
2017-07-06T09:10:54.544Z,21.9
2017-07-06T09:11:55.949Z,21.9
2017-07-06T09:12:57.354Z,21.9
2017-07-06T09:13:58.756Z,22.0
2017-07-06T09:15:00.159Z,21.9
2017-07-06T09:16:01.563Z,21.9
2017-07-06T09:17:02.967Z,21.9
2017-07-06T09:18:04.372Z,22.0
2017-07-06T09:19:05.783Z,21.9
2017-07-06T09:20:07.187Z,21.9
2017-07-06T09:21:08.588Z,21.9
2017-07-06T09:22:09.993Z,22.0
2017-07-06T09:23:11.398Z,21.9
2017-07-06T09:24:12.804Z,21.9
2017-07-06T09:25:14.207Z,21.9
2017-07-06T09:26:15.629Z,21.9
2017-07-06T09:27:17.029Z,21.9
2017-07-06T09:28:18.429Z,21.9
2017-07-06T09:29:19.834Z,21.9
2017-07-06T09:30:21.235Z,21.9
2017-07-06T09:31:22.636Z,22.0
2017-07-06T09:32:24.041Z,22.0
2017-07-06T09:33:25.448Z,21.9
2017-07-06T09:34:26.853Z,21.9
2017-07-06T09:35:28.256Z,21.9
2017-07-06T09:36:29.661Z,22.0
2017-07-06T09:37:31.063Z,22.0
2017-07-06T09:38:32.465Z,22.1
2017-07-06T09:39:33.869Z,22.0
2017-07-06T09:40:35.277Z,22.0
2017-07-06T09:41:36.687Z,22.0
2017-07-06T09:42:38.088Z,21.9
2017-07-06T09:43:39.491Z,22.0
2017-07-06T09:44:40.900Z,22.0
2017-07-06T09:45:42.305Z,22.0
2017-07-06T09:46:43.710Z,21.9
2017-07-06T09:47:45.115Z,22.0
2017-07-06T09:48:46.522Z,22.0
2017-07-06T09:49:47.926Z,22.0
2017-07-06T09:50:49.329Z,22.0
2017-07-06T09:51:50.734Z,22.0
2017-07-06T09:52:52.142Z,22.0
2017-07-06T09:53:53.544Z,22.0
2017-07-06T09:54:54.967Z,22.0
2017-07-06T09:55:56.377Z,22.0
2017-07-06T09:56:57.776Z,22.0
2017-07-06T09:57:59.180Z,22.0
2017-07-06T09:59:00.581Z,22.0
2017-07-06T10:00:01.985Z,22.0
2017-07-06T10:01:03.396Z,22.0
2017-07-06T10:02:04.794Z,22.0
2017-07-06T10:03:06.218Z,22.0
2017-07-06T10:04:07.620Z,22.0
2017-07-06T10:05:09.029Z,22.0
2017-07-06T10:06:10.429Z,22.0
2017-07-06T10:07:11.831Z,22.0
2017-07-06T10:08:13.241Z,22.0
2017-07-06T10:09:14.643Z,22.0
2017-07-06T10:10:16.050Z,22.0
2017-07-06T10:11:17.450Z,22.0
2017-07-06T10:12:18.851Z,22.0
2017-07-06T10:13:21.135Z,22.1
2017-07-06T10:14:22.539Z,22.1
2017-07-06T10:15:23.992Z,22.0
2017-07-06T10:16:25.396Z,22.1
2017-07-06T10:17:26.801Z,22.0
2017-07-06T10:18:28.202Z,22.0
2017-07-06T10:19:29.606Z,22.0
2017-07-06T10:20:31.008Z,22.0
2017-07-06T10:21:32.413Z,22.0
2017-07-06T10:22:33.817Z,22.1
2017-07-06T10:23:35.223Z,22.0
2017-07-06T10:24:36.628Z,22.1
2017-07-06T10:25:38.031Z,22.0
2017-07-06T10:26:39.433Z,22.0
2017-07-06T10:27:40.838Z,22.0
2017-07-06T10:28:42.261Z,22.0
2017-07-06T10:29:43.665Z,21.9
2017-07-06T10:30:45.069Z,22.0
2017-07-06T10:31:46.475Z,22.1
2017-07-06T10:32:47.877Z,22.0
2017-07-06T10:33:49.286Z,22.0
2017-07-06T10:34:50.690Z,22.0
2017-07-06T10:35:52.094Z,22.0
2017-07-06T10:36:53.504Z,22.0
2017-07-06T10:37:54.903Z,21.9
2017-07-06T10:38:56.309Z,22.0
2017-07-06T10:39:57.709Z,22.0
2017-07-06T10:40:59.111Z,22.0
2017-07-06T10:42:00.515Z,22.0
2017-07-06T10:43:01.919Z,22.0
2017-07-06T10:44:03.330Z,22.1
2017-07-06T10:45:04.806Z,22.1
2017-07-06T10:46:06.811Z,22.0
2017-07-06T10:47:08.816Z,22.0
2017-07-06T10:48:10.825Z,22.0
2017-07-06T10:49:12.826Z,22.1
2017-07-06T10:50:14.833Z,22.1
2017-07-06T10:51:16.838Z,22.1
2017-07-06T10:52:18.844Z,22.0
2017-07-06T10:53:20.849Z,22.0
2017-07-06T10:54:22.854Z,22.0
2017-07-06T10:55:24.868Z,22.1
2017-07-06T10:56:26.872Z,22.0
2017-07-06T10:57:28.872Z,22.1
2017-07-06T10:58:30.877Z,22.0
2017-07-06T10:59:32.882Z,22.0
2017-07-06T11:00:34.886Z,22.1
2017-07-06T11:01:36.892Z,22.0
2017-07-06T11:02:38.896Z,22.0
2017-07-06T11:03:40.903Z,22.0
2017-07-06T11:04:42.907Z,22.0
2017-07-06T11:05:44.910Z,22.0
2017-07-06T11:06:46.916Z,22.1
2017-07-06T11:07:48.926Z,22.2
2017-07-06T11:08:50.931Z,22.1
2017-07-06T11:09:52.936Z,22.1
2017-07-06T11:10:54.348Z,22.1
2017-07-06T11:11:55.744Z,22.1
2017-07-06T11:12:57.655Z,22.1
2017-07-06T11:13:59.057Z,22.1
2017-07-06T11:15:00.470Z,22.1
2017-07-06T11:16:01.872Z,22.1
2017-07-06T11:17:03.277Z,22.1
2017-07-06T11:18:04.681Z,22.1
2017-07-06T11:19:06.086Z,22.2
2017-07-06T11:20:07.490Z,22.1
2017-07-06T11:21:08.895Z,22.1
2017-07-06T11:22:10.298Z,22.1
2017-07-06T11:23:11.701Z,22.2
2017-07-06T11:24:13.106Z,22.1
2017-07-06T11:25:14.506Z,22.2
2017-07-06T11:26:15.911Z,22.1
2017-07-06T11:27:17.321Z,22.1
2017-07-06T11:28:18.719Z,22.1
2017-07-06T11:29:20.124Z,22.2
2017-07-06T11:30:21.528Z,22.2
2017-07-06T11:31:22.931Z,22.1
2017-07-06T11:32:24.336Z,22.2
2017-07-06T11:33:25.742Z,22.2
2017-07-06T11:34:27.145Z,22.2
2017-07-06T11:35:28.552Z,22.1
2017-07-06T11:36:29.955Z,22.1
2017-07-06T11:37:31.361Z,22.1
2017-07-06T11:38:32.763Z,22.1
2017-07-06T11:39:34.165Z,22.1
2017-07-06T11:40:35.570Z,22.1
2017-07-06T11:41:36.973Z,22.1
2017-07-06T11:42:38.381Z,22.1
2017-07-06T11:43:39.786Z,22.1
2017-07-06T11:44:41.191Z,22.1
2017-07-06T11:45:42.596Z,22.2
2017-07-06T11:46:43.997Z,22.1
2017-07-06T11:47:45.412Z,22.1
2017-07-06T11:48:46.815Z,22.1
2017-07-06T11:49:48.220Z,22.2
2017-07-06T11:50:49.626Z,22.1
2017-07-06T11:51:51.027Z,22.2
2017-07-06T11:52:52.430Z,22.1
2017-07-06T11:53:53.836Z,22.2
2017-07-06T11:54:55.239Z,22.1
2017-07-06T11:55:56.647Z,22.1
2017-07-06T11:56:58.052Z,22.2
2017-07-06T11:57:59.457Z,22.1
2017-07-06T11:59:00.858Z,22.2
2017-07-06T12:00:02.259Z,22.2
2017-07-06T12:01:03.666Z,22.2
2017-07-06T12:02:05.077Z,22.2
2017-07-06T12:03:06.487Z,22.2
2017-07-06T12:04:07.896Z,22.2
2017-07-06T12:05:09.322Z,22.1
2017-07-06T12:06:10.724Z,22.2
2017-07-06T12:07:12.128Z,22.1
2017-07-06T12:08:13.531Z,22.2
2017-07-06T12:09:14.937Z,22.1
2017-07-06T12:10:16.341Z,22.2
2017-07-06T12:11:17.749Z,22.2
2017-07-06T12:12:19.155Z,22.2
2017-07-06T12:13:20.605Z,22.2
2017-07-06T12:14:21.961Z,22.2
2017-07-06T12:15:23.366Z,22.2
2017-07-06T12:16:24.772Z,22.2
2017-07-06T12:17:26.177Z,22.2
2017-07-06T12:18:27.590Z,22.2
2017-07-06T12:19:29.003Z,22.1
2017-07-06T12:20:30.404Z,22.2
2017-07-06T12:21:31.810Z,22.2
2017-07-06T12:22:33.221Z,22.2
2017-07-06T12:23:34.625Z,22.2
2017-07-06T12:24:36.032Z,22.2
2017-07-06T12:25:37.440Z,22.1
2017-07-06T12:26:38.844Z,22.2
2017-07-06T12:27:40.254Z,22.2
2017-07-06T12:28:41.659Z,22.2
2017-07-06T12:29:43.061Z,22.2
2017-07-06T12:30:44.466Z,22.2
2017-07-06T12:31:45.879Z,22.3
2017-07-06T12:32:47.274Z,22.2
2017-07-06T12:33:48.679Z,22.2
2017-07-06T12:34:50.081Z,22.2
2017-07-06T12:35:51.485Z,22.2
2017-07-06T12:36:52.890Z,22.2
2017-07-06T12:37:55.172Z,22.2
2017-07-06T12:38:56.575Z,22.2
2017-07-06T12:39:57.987Z,22.2
2017-07-06T12:40:59.390Z,22.3
2017-07-06T12:42:00.796Z,22.2
2017-07-06T12:43:02.199Z,22.2
2017-07-06T12:44:03.604Z,22.3
2017-07-06T12:45:05.010Z,22.2
2017-07-06T12:46:06.414Z,22.3
2017-07-06T12:47:07.819Z,22.2
2017-07-06T12:48:10.181Z,22.3
2017-07-06T12:49:11.586Z,22.3
2017-07-06T12:50:13.441Z,22.3
2017-07-06T12:51:15.446Z,22.2
2017-07-06T12:52:17.452Z,22.2
2017-07-06T12:53:19.459Z,22.3
2017-07-06T12:54:21.464Z,22.2
2017-07-06T12:55:23.470Z,22.3
2017-07-06T12:56:25.476Z,22.3
2017-07-06T12:57:27.481Z,22.2
2017-07-06T12:58:29.493Z,22.2
2017-07-06T12:59:31.508Z,22.3
2017-07-06T13:00:33.507Z,22.3
2017-07-06T13:01:35.508Z,22.3
2017-07-06T13:02:37.516Z,22.3
2017-07-06T13:03:39.522Z,22.2
2017-07-06T13:04:41.527Z,22.2
2017-07-06T13:05:43.533Z,22.2
2017-07-06T13:06:45.537Z,22.3
2017-07-06T13:07:47.543Z,22.2
2017-07-06T13:08:49.549Z,22.3
2017-07-06T13:09:51.553Z,22.3
2017-07-06T13:10:53.558Z,22.3
2017-07-06T13:11:55.564Z,22.2
2017-07-06T13:12:56.967Z,22.2
2017-07-06T13:13:58.373Z,22.2
2017-07-06T13:14:59.778Z,22.2
2017-07-06T13:16:01.193Z,22.2
2017-07-06T13:17:02.597Z,22.3
2017-07-06T13:18:04.001Z,22.2
2017-07-06T13:19:05.404Z,22.3
2017-07-06T13:20:06.807Z,22.3
2017-07-06T13:21:08.220Z,22.3
2017-07-06T13:22:09.622Z,22.2
2017-07-06T13:23:11.032Z,22.2
2017-07-06T13:24:12.440Z,22.2
2017-07-06T13:25:13.842Z,22.2
2017-07-06T13:26:15.244Z,22.2
2017-07-06T13:27:16.650Z,22.3
2017-07-06T13:28:18.052Z,22.2
2017-07-06T13:29:19.456Z,22.3
2017-07-06T13:30:20.862Z,22.2
2017-07-06T13:31:22.274Z,22.2
2017-07-06T13:32:23.673Z,22.2
2017-07-06T13:33:25.077Z,22.3
2017-07-06T13:34:26.481Z,22.2
2017-07-06T13:35:27.892Z,22.3
2017-07-06T13:36:29.305Z,22.3
2017-07-06T13:37:30.711Z,22.3
2017-07-06T13:38:32.115Z,22.3
2017-07-06T13:39:33.520Z,22.3